Flight Track Log - Related Links

Times and Time Zones

All times are in EST time to prevent confusion due to time zone crossing. See the N478DR flight status page for this flight to view local times or setup timezone preferences in your user account.

Time Position Orientation Groundspeed Altitude Reporting Facility
EST Latitude Longitude Course Direction KTS MPH feet Rate Location/Type
Wed 03:14:57 PM 41.2356 -95.8117 137° Southeast 224 258 5,700  Level Minneapolis Center
Wed 03:15:08 PM 41.2300 -95.7967 116° Southeast 257 296 6,200 2,613 Climbing Minneapolis Center
Wed 03:15:59 PM 41.2375 -95.7092 83° East 273 314 8,400 2,602 Climbing Minneapolis Center
Wed 03:17:01 PM 41.3000 -95.6350 42° Northeast 295 339 11,100 2,613 Climbing Minneapolis Center
Wed 03:18:03 PM 41.3703 -95.5656 37° Northeast 310 357 13,800 2,855 Climbing Minneapolis Center
Wed 03:19:05 PM 41.4553 -95.4825 36° Northeast 316 364 17,000 2,537 Climbing Minneapolis Center
Wed 03:20:06 PM 41.5272 -95.4106 37° Northeast 321 369 19,000 976 Climbing Minneapolis Center
Wed 03:21:08 PM 41.6114 -95.3236 38° Northeast 375 432 19,000 48 Level Minneapolis Center
Wed 03:22:10 PM 41.7075 -95.2275 37° Northeast 422 486 19,100 774 Climbing Minneapolis Center
Wed 03:23:12 PM 41.8044 -95.1292 37° Northeast 436 502 20,600 1,415 Climbing Minneapolis Center
Wed 03:24:13 PM 41.9000 -95.0328 37° Northeast 433 498 22,000 1,366 Climbing Minneapolis Center
Wed 03:25:15 PM 41.9942 -94.9367 37° Northeast 427 491 23,400 1,452 Climbing Minneapolis Center
Wed 03:26:17 PM 42.1078 -94.8208 37° Northeast 427 491 25,000 774 Climbing Minneapolis Center
Wed 03:27:19 PM 42.2050 -94.7189 38° Northeast 436 502 25,000  Level Minneapolis Center
Wed 03:28:21 PM 42.3075 -94.6133 37° Northeast 455 524 25,000  Level Minneapolis Center
Wed 03:29:22 PM 42.4106 -94.5064 37° Northeast 464 534 25,000  Level Minneapolis Center
Wed 03:30:24 PM 42.5042 -94.4069 38° Northeast 465 535 25,000  Level Minneapolis Center
Wed 03:31:26 PM 42.6256 -94.2775 38° Northeast 466 536 25,000  Level Minneapolis Center
Wed 03:32:28 PM 42.7269 -94.1672 39° Northeast 468 539 25,000  Level Minneapolis Center
Wed 03:33:29 PM 42.8283 -94.0564 39° Northeast 470 541 25,000  Level Minneapolis Center
Wed 03:34:31 PM 42.9400 -93.9661 31° Northeast 468 539 25,000 -194 Level Minneapolis Center
Wed 03:35:33 PM 43.0664 -93.9197 15° North 469 540 24,600 -435 Descending Minneapolis Center
Wed 03:36:35 PM 43.1925 -93.8703 16° North 472 543 24,100 -537 Descending Minneapolis Center
Wed 03:37:36 PM 43.3425 -93.8117 16° North 471 542 23,500 -585 Descending Minneapolis Center
Wed 03:38:38 PM 43.4647 -93.7647 16° North 464 534 22,900 -1,355 Descending Minneapolis Center
Wed 03:39:40 PM 43.5961 -93.7139 16° North 460 529 20,700 -2,226 Descending Minneapolis Center
Wed 03:40:42 PM 43.7125 -93.6672 16° North 443 510 18,300 -2,244 Descending Minneapolis Center
Wed 03:41:43 PM 43.8250 -93.6250 15° North 427 491 16,100 -2,049 Descending Minneapolis Center
Wed 03:42:45 PM 43.9294 -93.5839 16° North 405 466 14,100 -1,935 Descending Minneapolis Center
Wed 03:43:47 PM 44.0289 -93.5447 16° North 372 428 12,100 -1,887 Descending Minneapolis Center
Wed 03:44:49 PM 44.1217 -93.5058 17° North 348 400 10,200 -1,854 Descending Minneapolis Center
Wed 03:45:50 PM 44.2192 -93.4686 15° North 307 353 8,300 -1,268 Descending Minneapolis Center
Wed 03:46:52 PM 44.2928 -93.4239 24° Northeast 306 352 7,600 -823 Descending Minneapolis Center
Wed 03:47:54 PM 44.3589 -93.3444 41° Northeast 316 364 6,600 -919 Descending Minneapolis Center
Wed 03:48:56 PM 44.4239 -93.2717 39° Northeast 303 349 5,700 -677 Descending Minneapolis Center
Wed 03:49:58 PM 44.4872 -93.1994 39° Northeast 298 343 5,200 -439 Descending Minneapolis Center
Wed 03:50:59 PM 44.5519 -93.1317 37° Northeast 294 338 4,800 -488 Descending Minneapolis Center
Wed 03:52:01 PM 44.6303 -93.0531 36° Northeast 293 337 4,200 -532 Descending Minneapolis Center
Wed 03:53:03 PM 44.6950 -92.9856 37° Northeast 295 339 3,700 -484 Descending Minneapolis Center
Wed 03:54:05 PM 44.7650 -92.9242 32° Northeast 301 346 3,200 -339 Descending Minneapolis Center
Wed 03:55:07 PM 44.8397 -92.8817 22° Northeast 294 338 3,000 -339 Descending Minneapolis Center
Wed 03:56:09 PM 44.9097 -92.8428 21° North 276 318 2,500 -290 Descending Minneapolis Center
Wed 03:57:11 PM 44.9692 -92.8781 337° Northwest 227 261 2,400  Descending Minneapolis Center
Wed 03:58:12 PM 44.9867 -92.9383 292° West 171 197 2,500 49 Climbing Minneapolis Center
Wed 03:59:14 PM 44.9808 -92.9989 262° West 154 177 2,500 -426 Level Minneapolis Center
Wed 04:01:01 PM 44.9667 -93.0833 257° West 132 152 1,300 -548 Descending Minneapolis TRACON
Wed 04:02:20 PM 44.9314 -93.0569 152° Southeast 125 144 800 -380 Descending Minneapolis Center

Login

Don't have an account? Register now (free) for customized features, flight alerts, and more!